Terminal Aerodrome Forecast
Issued by NWS Grand Junction, CO

Home | Current Version | Previous Version | Text Only | Print | Product List | Glossary On
Versions: 1 2 3 4 5 6 7 8 9 10 11 12 13 14
000
FTUS45 KGJT 061133
TAFGJT
TAF
KGJT 061133Z 0612/0712 10006KT P6SM FEW090 SCT250
     FM062000 30007KT P6SM BKN120
     FM070200 33006KT P6SM VCSH OVC080=

USA.gov is the U.S. government's official web portal to all federal, state and local government web resources and services.